Time;durP1;ratioP1;P1;durP2;ratioP2;P2;SDS_P1;SDS_P2;PMS_P1;PMS_P2;Temp;Humidity;BMP_temperature;BMP_pressure;BME280_temperature;BME280_humidity;BME280_pressure;Samples;Min_cycle;Max_cycle;Signal;HPM_P1;HPM_P2
2023/06/10 00:01:47;;;;;;;7.43;6.82;;;;;;;18.73;75.47;94522.84;5117656;28;20599;-73
2023/06/10 00:04:16;;;;;;;6.70;6.10;;;;;;;18.70;75.18;94520.88;5117805;27;20267;-73
2023/06/10 00:06:44;;;;;;;6.15;5.38;;;;;;;18.69;75.07;94526.84;5117619;28;20176;-74
2023/06/10 00:09:11;;;;;;;6.18;5.60;;;;;;;18.68;75.31;94520.47;5117442;28;20191;-74
2023/06/10 00:11:38;;;;;;;6.53;5.65;;;;;;;18.65;75.12;94526.13;5117542;28;20192;-73
2023/06/10 00:14:07;;;;;;;7.63;5.85;;;;;;;18.63;75.28;94522.97;5117463;28;20257;-74
2023/06/10 00:16:34;;;;;;;6.43;5.93;;;;;;;18.60;75.40;94521.78;5116492;28;20215;-74
2023/06/10 00:19:02;;;;;;;7.43;6.65;;;;;;;18.54;75.21;94529.03;5116088;28;20195;-73
2023/06/10 00:21:37;;;;;;;7.68;6.97;;;;;;;18.49;75.90;94523.94;5117210;28;20202;-73
2023/06/10 00:24:06;;;;;;;6.75;6.05;;;;;;;18.44;75.85;94527.94;5116267;28;20234;-73
2023/06/10 00:26:35;;;;;;;6.25;5.65;;;;;;;18.42;76.19;94522.00;5116215;28;20195;-73
2023/06/10 00:29:03;;;;;;;5.88;5.43;;;;;;;18.40;76.46;94524.41;5116330;28;20230;-73
2023/06/10 00:31:30;;;;;;;6.65;6.05;;;;;;;18.38;77.05;94526.06;5117210;28;20245;-73
2023/06/10 00:33:58;;;;;;;7.50;6.15;;;;;;;18.38;77.27;94529.63;5116949;28;20191;-73
2023/06/10 00:36:26;;;;;;;6.88;6.25;;;;;;;18.38;76.88;94523.25;5115750;28;20203;-72
2023/06/10 00:38:54;;;;;;;7.80;6.63;;;;;;;18.35;77.17;94518.50;5117024;28;20180;-73
2023/06/10 00:41:21;;;;;;;7.22;6.57;;;;;;;18.35;77.32;94518.50;5115980;28;20188;-74
2023/06/10 00:43:50;;;;;;;6.97;6.43;;;;;;;18.33;77.52;94524.50;5116008;28;20196;-74
2023/06/10 00:46:20;;;;;;;8.13;7.30;;;;;;;18.36;77.54;94522.88;5115903;28;20217;-73
2023/06/10 00:48:48;;;;;;;7.68;6.97;;;;;;;18.32;77.67;94522.91;5116832;28;20184;-73
2023/06/10 00:51:17;;;;;;;7.80;6.90;;;;;;;18.27;77.79;94523.38;5116681;28;20210;-73
2023/06/10 00:53:45;;;;;;;6.80;6.28;;;;;;;18.25;77.98;94525.78;5115741;28;20211;-74
2023/06/10 00:56:15;;;;;;;6.57;6.05;;;;;;;18.22;78.04;94527.41;5115647;28;20192;-74
2023/06/10 00:58:42;;;;;;;6.90;6.20;;;;;;;18.27;78.54;94524.16;5116357;28;20264;-73
2023/06/10 01:01:10;;;;;;;7.45;6.75;;;;;;;18.27;78.05;94529.75;5116468;28;20184;-73
2023/06/10 01:03:37;;;;;;;7.82;6.53;;;;;;;18.30;78.53;94525.34;5116323;28;20194;-73
2023/06/10 01:06:10;;;;;;;6.60;5.88;;;;;;;18.34;78.07;94533.66;5116516;28;20176;-72
2023/06/10 01:08:42;;;;;;;6.70;6.10;;;;;;;18.36;78.14;94525.66;5115523;28;20195;-72
2023/06/10 01:11:20;;;;;;;6.47;5.80;;;;;;;18.35;77.12;94530.47;5115576;28;20200;-72
2023/06/10 01:13:51;;;;;;;6.72;6.05;;;;;;;18.35;77.46;94532.47;5115460;28;20294;-72
2023/06/10 01:16:20;;;;;;;6.57;5.88;;;;;;;18.35;77.29;94535.25;5115465;28;20188;-72
2023/06/10 01:18:50;;;;;;;6.88;6.03;;;;;;;18.34;77.51;94534.47;5115403;28;20203;-72
2023/06/10 01:21:24;;;;;;;6.47;5.82;;;;;;;18.35;77.71;94533.25;5115940;28;20531;-72
2023/06/10 01:23:55;;;;;;;6.75;5.93;;;;;;;18.36;77.65;94531.25;5114602;28;20606;-72
2023/06/10 01:26:26;;;;;;;6.95;6.28;;;;;;;18.36;77.37;94523.66;5115063;28;20641;-72
2023/06/10 01:28:58;;;;;;;6.65;6.05;;;;;;;18.38;77.10;94526.06;5115905;28;20275;-72
2023/06/10 01:31:33;;;;;;;7.20;6.60;;;;;;;18.39;77.45;94525.63;5115056;28;20200;-73
2023/06/10 01:34:03;;;;;;;6.15;5.63;;;;;;;18.41;77.23;94528.81;5114782;28;20192;-72
2023/06/10 01:36:36;;;;;;;6.53;5.90;;;;;;;18.42;76.89;94524.78;5114978;28;20231;-72
2023/06/10 01:39:03;;;;;;;6.60;5.95;;;;;;;18.39;76.60;94522.84;5114591;28;20201;-72
2023/06/10 01:41:31;;;;;;;5.80;5.35;;;;;;;18.41;76.81;94526.00;5115853;28;20571;-73
2023/06/10 01:43:57;;;;;;;7.30;6.03;;;;;;;18.42;76.81;94524.00;5114629;28;20198;-72
2023/06/10 01:46:24;;;;;;;6.32;5.72;;;;;;;18.41;76.77;94519.63;5114174;28;20191;-72
2023/06/10 01:48:51;;;;;;;6.93;5.85;;;;;;;18.41;76.17;94526.00;5114678;28;20529;-74
2023/06/10 01:51:17;;;;;;;5.95;5.35;;;;;;;18.40;76.17;94520.81;5114662;28;20196;-73
2023/06/10 01:53:47;;;;;;;5.88;5.32;;;;;;;18.41;76.20;94514.03;5114879;28;20196;-73
2023/06/10 01:56:16;;;;;;;5.30;4.88;;;;;;;18.40;75.96;94504.06;5115201;28;20191;-73
2023/06/10 01:58:43;;;;;;;6.00;5.35;;;;;;;18.43;76.26;94506.81;5115505;28;20180;-72
2023/06/10 02:01:10;;;;;;;6.13;5.63;;;;;;;18.43;76.33;94514.41;5115256;28;20180;-72
2023/06/10 02:03:37;;;;;;;5.90;5.40;;;;;;;18.41;76.30;94500.88;5114405;28;20199;-72
2023/06/10 02:06:05;;;;;;;6.22;5.72;;;;;;;18.40;76.30;94502.06;5114430;28;20184;-72
2023/06/10 02:08:32;;;;;;;5.55;5.15;;;;;;;18.41;76.26;94500.88;5113893;28;20212;-72
2023/06/10 02:11:00;;;;;;;5.97;5.38;;;;;;;18.41;75.44;94502.84;5113957;28;20670;-72
2023/06/10 02:13:28;;;;;;;6.22;5.63;;;;;;;18.40;75.99;94499.28;5115285;28;20527;-72
2023/06/10 02:15:58;;;;;;;6.35;5.43;;;;;;;18.39;75.57;94502.50;5115095;28;20194;-72
2023/06/10 02:18:28;;;;;;;6.00;5.50;;;;;;;18.38;75.56;94490.53;5114146;28;20187;-72
2023/06/10 02:20:55;;;;;;;5.70;5.30;;;;;;;18.40;75.49;94493.69;5114769;28;20208;-72
2023/06/10 02:23:21;;;;;;;6.50;5.88;;;;;;;18.43;75.36;94492.09;5114735;28;20520;-72
2023/06/10 02:25:49;;;;;;;6.82;5.57;;;;;;;18.44;75.51;94490.88;5113672;28;20230;-72
2023/06/10 02:28:18;;;;;;;6.22;5.63;;;;;;;18.45;75.12;94489.69;5114493;28;20223;-72
2023/06/10 02:30:45;;;;;;;6.05;5.55;;;;;;;18.45;75.50;94487.66;5114885;28;20206;-72
2023/06/10 02:33:13;;;;;;;5.72;5.32;;;;;;;18.46;75.34;94480.88;5114773;28;20191;-72
2023/06/10 02:35:40;;;;;;;5.45;5.05;;;;;;;18.47;75.30;94485.22;5113843;28;20463;-72
2023/06/10 02:38:07;;;;;;;5.93;5.40;;;;;;;18.49;75.44;94474.44;5114771;28;20190;-72
2023/06/10 02:40:35;;;;;;;5.85;5.35;;;;;;;18.51;76.06;94480.38;5113492;28;20206;-72
2023/06/10 02:43:03;;;;;;;5.63;5.13;;;;;;;18.53;76.29;94477.97;5113678;28;20203;-72
2023/06/10 02:45:31;;;;;;;5.93;5.32;;;;;;;18.55;76.56;94468.38;5113577;28;20211;-72
2023/06/10 02:47:58;;;;;;;5.60;4.93;;;;;;;18.56;76.59;94467.19;5113590;28;20586;-72
2023/06/10 02:50:27;;;;;;;6.30;5.68;;;;;;;18.55;76.98;94460.81;5114755;28;20176;-73
2023/06/10 02:52:56;;;;;;;6.20;5.60;;;;;;;18.55;78.07;94466.38;5113627;28;20191;-72
2023/06/10 02:55:26;;;;;;;7.53;6.25;;;;;;;18.52;78.74;94470.03;5113568;28;20199;-73
2023/06/10 02:57:53;;;;;;;7.00;6.38;;;;;;;18.42;79.32;94468.97;5112609;28;20528;-72
2023/06/10 03:00:21;;;;;;;7.32;6.63;;;;;;;18.32;79.91;94461.50;5114449;28;20179;-72
2023/06/10 03:02:51;;;;;;;7.22;6.63;;;;;;;18.29;81.06;94477.06;5114339;28;20279;-71
2023/06/10 03:05:23;;;;;;;6.38;5.88;;;;;;;18.32;81.54;94477.47;5113140;28;20238;-71
2023/06/10 03:07:49;;;;;;;7.53;6.82;;;;;;;18.29;81.20;94479.06;5114212;28;20211;-73
2023/06/10 03:10:17;;;;;;;8.00;7.22;;;;;;;18.31;81.72;94479.47;5114113;28;20179;-73
2023/06/10 03:12:44;;;;;;;6.78;6.18;;;;;;;18.32;82.22;94485.84;5113160;28;20191;-72
2023/06/10 03:15:12;;;;;;;6.90;6.30;;;;;;;18.30;81.98;94486.25;5112941;28;20223;-71
2023/06/10 03:17:40;;;;;;;7.72;6.93;;;;;;;18.29;82.20;94493.81;5113313;28;20200;-72
2023/06/10 03:20:10;;;;;;;6.93;6.30;;;;;;;18.27;82.58;94496.25;5114237;28;20199;-72
2023/06/10 03:22:37;;;;;;;6.95;6.30;;;;;;;18.23;81.93;94503.88;5095850;28;20230;-72
2023/06/10 03:25:05;;;;;;;7.22;6.53;;;;;;;18.20;81.91;94501.91;5113818;28;20272;-72
2023/06/10 03:27:35;;;;;;;6.78;6.18;;;;;;;18.17;81.92;94508.31;5113613;28;20223;-72
2023/06/10 03:30:01;;;;;;;7.30;6.35;;;;;;;18.09;82.33;94506.81;5113240;28;20195;-72
2023/06/10 03:32:28;;;;;;;7.90;7.10;;;;;;;18.03;83.12;94506.47;5114104;28;20188;-72
2023/06/10 03:34:57;;;;;;;6.88;6.28;;;;;;;18.01;83.32;94508.91;5113123;28;20244;-73
2023/06/10 03:37:27;;;;;;;7.63;6.88;;;;;;;18.04;83.78;94505.25;5113174;28;20192;-72
2023/06/10 03:39:55;;;;;;;7.47;6.72;;;;;;;18.07;83.78;94508.44;5113138;28;20199;-72
2023/06/10 03:42:22;;;;;;;7.10;6.50;;;;;;;18.07;83.67;94512.00;5113952;28;20194;-72
2023/06/10 03:44:49;;;;;;;6.85;6.13;;;;;;;18.06;83.52;94506.88;5113669;28;20199;-72
2023/06/10 03:47:17;;;;;;;7.78;6.65;;;;;;;18.03;82.94;94509.25;5113843;28;20482;-72
2023/06/10 03:49:46;;;;;;;6.38;5.80;;;;;;;17.99;82.64;94508.50;5114248;28;20195;-71
2023/06/10 03:52:13;;;;;;;8.77;6.30;;;;;;;18.00;82.62;94503.72;5112778;28;20203;-71
2023/06/10 03:54:41;;;;;;;6.82;6.22;;;;;;;17.98;83.06;94501.34;5112933;28;20211;-72
2023/06/10 03:57:08;;;;;;;6.80;6.20;;;;;;;17.98;83.37;94501.34;5113933;28;20627;-72
2023/06/10 03:59:38;;;;;;;6.90;6.20;;;;;;;17.99;83.50;94500.16;5113572;28;20191;-72
2023/06/10 04:02:06;;;;;;;7.47;6.10;;;;;;;17.99;83.45;94502.16;5112874;28;20192;-72
2023/06/10 04:04:33;;;;;;;7.43;6.43;;;;;;;18.00;83.76;94500.94;5113628;28;20281;-72
2023/06/10 04:07:03;;;;;;;6.53;6.03;;;;;;;17.97;83.76;94508.16;5113849;28;20184;-72
2023/06/10 04:09:31;;;;;;;7.13;6.50;;;;;;;17.98;84.34;94503.34;5115003;28;20729;-72
2023/06/10 04:11:59;;;;;;;6.80;6.20;;;;;;;17.95;83.87;94499.38;5117299;28;20186;-72
2023/06/10 04:14:26;;;;;;;6.53;6.03;;;;;;;17.94;83.76;94510.97;5117470;28;20192;-72
2023/06/10 04:16:54;;;;;;;6.25;5.65;;;;;;;17.91;83.80;94512.59;5117319;28;20191;-72
2023/06/10 04:19:22;;;;;;;6.88;6.28;;;;;;;17.93;83.84;94515.75;5117437;28;20184;-71
2023/06/10 04:21:49;;;;;;;6.22;5.72;;;;;;;17.96;83.71;94512.13;5117028;28;20604;-72
2023/06/10 04:24:17;;;;;;;6.93;6.25;;;;;;;17.98;84.00;94512.50;5116150;28;20235;-73
2023/06/10 04:26:44;;;;;;;6.68;6.07;;;;;;;17.97;84.12;94515.69;5117234;28;20180;-72
2023/06/10 04:29:14;;;;;;;6.78;6.28;;;;;;;17.97;84.45;94512.91;5116889;28;20300;-73
2023/06/10 04:31:46;;;;;;;6.55;6.05;;;;;;;17.98;84.54;94514.53;5116093;28;20192;-73
2023/06/10 04:34:13;;;;;;;6.40;5.80;;;;;;;17.97;84.47;94510.13;5116129;28;20223;-73
2023/06/10 04:36:42;;;;;;;7.03;6.35;;;;;;;17.95;84.70;94509.75;5117414;28;20184;-75
2023/06/10 04:39:09;;;;;;;7.13;6.53;;;;;;;17.93;84.65;94512.94;5116137;28;20195;-73
2023/06/10 04:41:37;;;;;;;7.30;6.45;;;;;;;17.96;85.04;94519.72;5116056;28;20253;-73
2023/06/10 04:44:05;;;;;;;8.18;6.88;;;;;;;17.97;84.80;94516.53;5116902;28;20184;-73
2023/06/10 04:46:35;;;;;;;7.03;6.40;;;;;;;17.96;85.27;94517.72;5115895;28;20199;-73
2023/06/10 04:49:04;;;;;;;7.25;6.65;;;;;;;17.96;85.27;94514.91;5116324;28;20214;-73
2023/06/10 04:51:31;;;;;;;7.82;7.07;;;;;;;17.98;84.64;94515.31;5116731;28;20184;-74
2023/06/10 04:54:02;;;;;;;7.70;7.00;;;;;;;18.00;84.65;94512.09;5115622;28;20211;-73
2023/06/10 04:56:30;;;;;;;7.95;6.80;;;;;;;18.00;84.45;94514.88;5116733;28;20198;-74
2023/06/10 04:58:57;;;;;;;7.75;6.75;;;;;;;17.98;83.99;94508.94;5115712;28;20533;-74
2023/06/10 05:01:24;;;;;;;7.03;6.40;;;;;;;17.99;83.89;94513.31;5115858;28;20249;-73
2023/06/10 05:03:52;;;;;;;6.50;6.00;;;;;;;17.99;84.12;94507.72;5116471;28;20188;-73
2023/06/10 05:06:19;;;;;;;7.68;6.85;;;;;;;18.00;84.15;94510.09;5115487;28;20210;-73
2023/06/10 05:08:46;;;;;;;7.47;6.82;;;;;;;18.05;84.76;94514.44;5116047;28;20204;-74
2023/06/10 05:11:12;;;;;;;6.82;6.20;;;;;;;18.04;84.14;94507.25;5098589;28;20203;-73
2023/06/10 05:13:40;;;;;;;7.32;6.57;;;;;;;18.04;83.85;94510.84;5116388;28;20202;-73
2023/06/10 05:16:07;;;;;;;6.63;6.03;;;;;;;18.02;83.45;94512.47;5115216;28;20521;-73
2023/06/10 05:18:35;;;;;;;6.90;6.30;;;;;;;18.04;83.39;94516.41;5116285;28;20202;-73
2023/06/10 05:21:06;;;;;;;6.45;5.90;;;;;;;18.06;83.26;94523.59;5113842;28;20214;-73
2023/06/10 05:23:33;;;;;;;7.10;6.43;;;;;;;18.09;82.82;94517.19;5115187;28;20199;-73
2023/06/10 05:25:59;;;;;;;8.30;7.00;;;;;;;18.11;82.92;94509.97;5114975;28;20231;-74
2023/06/10 05:28:27;;;;;;;6.97;6.20;;;;;;;18.16;82.72;94514.34;5115803;28;20214;-73
2023/06/10 05:30:54;;;;;;;6.47;5.97;;;;;;;18.18;82.79;94518.28;5115770;28;20655;-73
2023/06/10 05:33:20;;;;;;;8.93;6.75;;;;;;;18.18;83.07;94523.06;5115834;28;20180;-73
2023/06/10 05:35:48;;;;;;;7.53;6.18;;;;;;;18.19;82.28;94519.06;5115633;28;20609;-74
2023/06/10 05:38:16;;;;;;;6.25;5.68;;;;;;;18.21;82.38;94517.44;5115080;28;20196;-74
2023/06/10 05:40:43;;;;;;;6.45;5.85;;;;;;;18.26;82.37;94513.41;5115910;28;20595;-73
2023/06/10 05:43:11;;;;;;;6.72;6.13;;;;;;;18.31;81.98;94512.97;5114518;28;20192;-73
2023/06/10 05:45:40;;;;;;;7.03;6.05;;;;;;;18.32;81.65;94524.91;5115422;28;20190;-73
2023/06/10 05:48:06;;;;;;;8.27;6.65;;;;;;;18.34;82.19;94522.47;5114566;28;20202;-74
2023/06/10 05:50:38;;;;;;;6.70;6.10;;;;;;;18.36;82.21;94518.06;5115189;28;20196;-71
2023/06/10 05:53:14;;;;;;;6.70;5.97;;;;;;;18.39;81.98;94524.84;5115513;28;20215;-71
2023/06/10 05:55:43;;;;;;;8.20;6.80;;;;;;;18.43;82.14;94526.38;5114722;28;20205;-71
2023/06/10 05:58:10;;;;;;;6.72;5.95;;;;;;;18.48;81.58;94525.13;5114871;28;20206;-74
2023/06/10 06:00:38;;;;;;;5.95;5.45;;;;;;;18.50;80.95;94526.28;5115402;28;20204;-72
2023/06/10 06:03:04;;;;;;;6.82;6.13;;;;;;;18.55;80.17;94524.25;5114616;28;20566;-71
2023/06/10 06:05:34;;;;;;;7.38;6.25;;;;;;;18.58;80.82;94527.00;5115433;28;20176;-71
2023/06/10 06:08:04;;;;;;;6.82;6.00;;;;;;;18.61;80.83;94530.97;5115296;28;20176;-71
2023/06/10 06:10:33;;;;;;;6.82;6.22;;;;;;;18.62;80.98;94524.16;5097399;28;20268;-71
2023/06/10 06:13:04;;;;;;;6.32;5.72;;;;;;;18.63;80.95;94523.75;5113851;28;20207;-71
2023/06/10 06:15:31;;;;;;;6.47;5.88;;;;;;;18.65;80.45;94521.31;5114533;28;20266;-71
2023/06/10 06:17:58;;;;;;;6.05;5.55;;;;;;;18.69;79.87;94524.84;5096994;28;20263;-71
2023/06/10 06:20:25;;;;;;;6.28;5.78;;;;;;;18.71;79.67;94530.06;5114241;28;20199;-71
2023/06/10 06:22:52;;;;;;;6.82;6.10;;;;;;;18.70;79.52;94528.44;5115126;28;20198;-72
2023/06/10 06:25:20;;;;;;;6.13;5.55;;;;;;;18.74;80.22;94534.81;5113466;28;20239;-72
2023/06/10 06:27:47;;;;;;;6.13;5.50;;;;;;;18.79;80.23;94534.34;5114016;28;20668;-71
2023/06/10 06:30:16;;;;;;;5.65;5.22;;;;;;;18.81;79.74;94537.53;5114727;28;20199;-72
2023/06/10 06:32:43;;;;;;;5.95;5.35;;;;;;;18.85;79.23;94543.06;5113593;28;20199;-73
2023/06/10 06:35:09;;;;;;;5.60;5.10;;;;;;;18.85;78.74;94532.69;5115441;28;20240;-73
2023/06/10 06:37:38;;;;;;;5.47;4.97;;;;;;;18.85;78.13;94524.28;5114227;28;20229;-74
2023/06/10 06:40:05;;;;;;;5.50;5.03;;;;;;;18.88;78.35;94531.03;5114831;28;20191;-71
2023/06/10 06:42:32;;;;;;;5.78;4.70;;;;;;;18.91;79.06;94527.41;5114888;28;20188;-71
2023/06/10 06:45:00;;;;;;;5.85;5.25;;;;;;;18.91;78.70;94525.41;5113780;28;20203;-72
2023/06/10 06:47:31;;;;;;;5.78;5.20;;;;;;;18.92;78.19;94523.41;5114323;28;20275;-72
2023/06/10 06:49:58;;;;;;;5.47;4.93;;;;;;;18.98;78.82;94524.50;5115080;28;20196;-72
2023/06/10 06:52:26;;;;;;;6.35;5.75;;;;;;;19.02;78.56;94521.66;5113434;28;20198;-72
2023/06/10 06:54:53;;;;;;;6.05;5.45;;;;;;;19.06;78.71;94516.81;5113449;28;20204;-71
2023/06/10 06:57:20;;;;;;;6.13;5.57;;;;;;;19.12;79.08;94520.72;5113678;28;20200;-71
2023/06/10 06:59:46;;;;;;;5.63;5.13;;;;;;;19.12;78.76;94515.94;5113495;28;20199;-73
2023/06/10 07:02:13;;;;;;;6.43;5.93;;;;;;;19.16;78.95;94515.88;5114459;28;20180;-71
2023/06/10 07:04:41;;;;;;;6.65;5.95;;;;;;;19.19;78.53;94512.25;5114447;28;20191;-72
2023/06/10 07:07:11;;;;;;;6.60;6.10;;;;;;;19.23;78.06;94512.97;5115306;28;20180;-73
2023/06/10 07:09:38;;;;;;;7.57;6.20;;;;;;;19.27;77.73;94512.91;5115322;28;20230;-72
2023/06/10 07:12:07;;;;;;;7.22;6.13;;;;;;;19.33;77.56;94514.81;5114721;28;20176;-74
2023/06/10 07:14:34;;;;;;;5.65;5.10;;;;;;;19.34;76.20;94510.00;5114413;28;20184;-76
2023/06/10 07:17:00;;;;;;;6.03;5.05;;;;;;;19.35;75.53;94506.78;5113444;28;20226;-72
2023/06/10 07:19:28;;;;;;;6.00;5.50;;;;;;;19.39;75.79;94499.16;5114231;28;20188;-72
2023/06/10 07:21:59;;;;;;;5.80;5.30;;;;;;;19.43;75.40;94496.31;5114081;28;20192;-72
2023/06/10 07:24:27;;;;;;;6.10;5.50;;;;;;;19.45;74.89;94494.66;5113107;28;20239;-75
2023/06/10 07:26:56;;;;;;;5.45;5.05;;;;;;;19.46;74.57;94498.22;5114523;28;20202;-72
2023/06/10 07:29:24;;;;;;;5.93;5.43;;;;;;;19.47;74.70;94499.84;5114117;28;20231;-72
2023/06/10 07:31:54;;;;;;;5.88;5.20;;;;;;;19.53;74.44;94498.13;5114388;28;20188;-72
2023/06/10 07:34:21;;;;;;;5.80;5.30;;;;;;;19.55;73.89;94500.50;5113201;28;20199;-72
2023/06/10 07:36:52;;;;;;;5.93;5.43;;;;;;;19.55;73.83;94504.09;5113143;28;20198;-72
2023/06/10 07:39:20;;;;;;;5.97;5.38;;;;;;;19.54;74.63;94501.72;5113008;28;20199;-72
2023/06/10 07:41:48;;;;;;;7.72;5.25;;;;;;;19.52;73.84;94496.53;5112826;28;20207;-72
2023/06/10 07:44:15;;;;;;;4.97;4.47;;;;;;;19.54;73.77;94502.50;5115403;28;20202;-72
2023/06/10 07:46:42;;;;;;;5.55;5.00;;;;;;;19.54;73.58;94502.50;5118128;28;20207;-72
2023/06/10 07:49:09;;;;;;;5.22;4.72;;;;;;;19.55;73.67;94498.50;5117020;28;20208;-72
2023/06/10 07:51:36;;;;;;;5.63;4.88;;;;;;;19.60;73.75;94500.78;5117961;28;20184;-72
2023/06/10 07:54:03;;;;;;;4.93;4.53;;;;;;;19.65;73.65;94499.56;5117997;28;20509;-71
2023/06/10 07:56:34;;;;;;;5.72;5.10;;;;;;;19.69;72.92;94494.69;5117936;28;20188;-73
2023/06/10 07:59:01;;;;;;;4.57;3.92;;;;;;;19.68;73.06;94493.09;5117563;28;20523;-73
2023/06/10 08:01:32;;;;;;;4.70;4.18;;;;;;;19.68;72.01;94505.09;5116639;28;20202;-76
2023/06/10 08:04:00;;;;;;;5.30;4.72;;;;;;;19.84;69.65;94500.84;5117006;28;20208;-74
2023/06/10 08:06:26;;;;;;;4.78;4.40;;;;;;;19.80;69.85;94500.91;5116871;28;20557;-72
2023/06/10 08:08:56;;;;;;;5.35;4.85;;;;;;;19.73;69.79;94494.63;5117398;28;20180;-72
2023/06/10 08:11:22;;;;;;;5.90;4.10;;;;;;;19.68;70.36;94493.91;5116699;28;20196;-71
2023/06/10 08:13:56;;;;;;;5.30;4.57;;;;;;;19.78;70.42;94494.94;5117489;28;20215;-72
2023/06/10 08:16:22;;;;;;;4.97;4.57;;;;;;;19.84;70.12;94490.44;5116586;28;20528;-72
2023/06/10 08:18:50;;;;;;;5.03;4.43;;;;;;;19.83;69.63;94488.06;5117434;28;20596;-71
2023/06/10 08:21:28;;;;;;;5.45;4.90;;;;;;;19.89;70.11;94478.75;5116159;28;20257;-71
2023/06/10 08:23:55;;;;;;;5.65;5.18;;;;;;;19.96;69.60;94477.81;5116991;28;20196;-72
2023/06/10 08:26:23;;;;;;;5.70;5.20;;;;;;;19.98;70.03;94469.81;5116355;28;20575;-72
2023/06/10 08:28:52;;;;;;;5.70;5.03;;;;;;;20.03;69.56;94472.09;5117195;28;20188;-72
2023/06/10 08:31:21;;;;;;;7.32;5.28;;;;;;;20.11;69.49;94470.72;5117034;28;20184;-71
2023/06/10 08:33:47;;;;;;;6.57;4.85;;;;;;;20.24;68.67;94472.91;5117248;28;20203;-71
2023/06/10 08:36:15;;;;;;;5.43;4.75;;;;;;;20.31;69.28;94467.97;5116190;28;20581;-72
2023/06/10 08:38:41;;;;;;;6.15;5.55;;;;;;;20.37;67.91;94463.44;5116164;28;20187;-71
2023/06/10 08:41:10;;;;;;;4.85;4.40;;;;;;;20.50;67.63;94469.19;5115965;28;20199;-71
2023/06/10 08:43:44;;;;;;;4.85;4.40;;;;;;;20.58;67.34;94464.25;5115966;28;20196;-72
2023/06/10 08:46:13;;;;;;;5.07;4.57;;;;;;;20.65;67.17;94467.69;5117031;28;20612;-72
2023/06/10 08:48:43;;;;;;;4.32;3.92;;;;;;;20.67;65.93;94456.06;5115644;28;20612;-71
2023/06/10 08:51:11;;;;;;;4.32;3.92;;;;;;;20.62;65.05;94457.34;5116610;28;20274;-71
2023/06/10 08:53:39;;;;;;;4.68;3.90;;;;;;;20.64;64.12;94454.91;5116894;28;20245;-72
2023/06/10 08:56:06;;;;;;;5.78;4.40;;;;;;;20.75;65.91;94451.88;5115584;28;20256;-72
2023/06/10 08:58:40;;;;;;;4.68;4.28;;;;;;;20.82;65.36;94451.72;5116959;28;20294;-72
2023/06/10 09:01:08;;;;;;;6.13;4.63;;;;;;;20.77;64.67;94445.81;5116868;28;20184;-72
2023/06/10 09:03:38;;;;;;;5.25;4.75;;;;;;;20.77;64.58;94445.81;5116728;28;20198;-72
2023/06/10 09:06:06;;;;;;;5.25;4.75;;;;;;;20.83;65.28;94447.69;5115550;28;20188;-71
2023/06/10 09:08:38;;;;;;;4.30;4.00;;;;;;;20.92;64.23;94441.50;5116544;28;20215;-72
2023/06/10 09:11:04;;;;;;;4.20;3.80;;;;;;;21.04;64.07;94440.81;5116566;28;20214;-72
2023/06/10 09:13:31;;;;;;;4.15;3.75;;;;;;;21.37;63.93;94441.66;5116674;28;20192;-72
2023/06/10 09:16:00;;;;;;;4.05;3.67;;;;;;;21.53;58.53;94443.69;5116431;28;20191;-71
2023/06/10 09:18:29;;;;;;;4.10;3.70;;;;;;;21.69;61.70;94444.88;5115044;28;20207;-71
2023/06/10 09:20:57;;;;;;;4.88;3.55;;;;;;;21.84;61.35;94440.47;5115981;28;20206;-72
2023/06/10 09:23:23;;;;;;;3.80;3.50;;;;;;;21.95;61.70;94438.16;5116275;28;20238;-72
2023/06/10 09:25:58;;;;;;;4.22;3.92;;;;;;;22.07;60.68;94439.44;5114677;28;20235;-72
2023/06/10 09:28:28;;;;;;;4.05;3.60;;;;;;;22.20;60.15;94426.28;5116251;28;20194;-72
2023/06/10 09:31:07;;;;;;;3.97;3.55;;;;;;;22.16;59.50;94428.41;5116057;28;20302;-71
2023/06/10 09:33:39;;;;;;;4.13;3.83;;;;;;;22.25;57.89;94436.19;5115314;28;20202;-71
2023/06/10 09:36:07;;;;;;;3.88;3.58;;;;;;;22.21;56.80;94432.69;5115259;28;20204;-72
2023/06/10 09:38:39;;;;;;;3.90;3.60;;;;;;;22.16;55.04;94428.41;5115841;28;20192;-71
2023/06/10 09:41:05;;;;;;;3.83;3.40;;;;;;;22.21;57.41;94425.06;5114851;28;20198;-71
2023/06/10 09:43:42;;;;;;;4.28;3.47;;;;;;;22.28;56.38;94421.25;5114953;28;20204;-72
2023/06/10 09:46:18;;;;;;;3.95;3.60;;;;;;;22.39;58.12;94416.13;5115151;28;20851;-72
2023/06/10 09:48:46;;;;;;;3.50;3.20;;;;;;;22.49;55.04;94417.06;5115646;28;20206;-71
2023/06/10 09:51:16;;;;;;;4.10;3.60;;;;;;;22.42;54.34;94417.25;5115661;28;20208;-72
2023/06/10 09:53:44;;;;;;;4.40;4.00;;;;;;;22.31;56.83;94415.53;5114642;28;20236;-72
2023/06/10 09:56:10;;;;;;;5.13;4.38;;;;;;;22.57;57.50;94405.16;5115474;28;20195;-71
2023/06/10 09:58:43;;;;;;;4.07;3.70;;;;;;;22.68;55.90;94410.44;5114564;28;20200;-71
2023/06/10 10:01:12;;;;;;;4.05;3.75;;;;;;;22.74;56.70;94405.06;5114601;28;20198;-72
2023/06/10 10:03:47;;;;;;;4.25;3.85;;;;;;;22.87;57.65;94400.22;5115255;28;20187;-72
2023/06/10 10:06:19;;;;;;;4.30;3.90;;;;;;;22.89;54.91;94406.19;5114786;28;20231;-71
2023/06/10 10:08:46;;;;;;;4.90;4.00;;;;;;;22.70;53.65;94404.41;5114272;28;20195;-71
2023/06/10 10:11:13;;;;;;;4.25;3.80;;;;;;;22.76;54.37;94399.78;5114157;28;20220;-72
2023/06/10 10:13:42;;;;;;;4.28;3.78;;;;;;;23.03;53.57;94393.75;5115251;28;20188;-72
2023/06/10 10:16:12;;;;;;;5.05;3.95;;;;;;;23.13;50.64;94389.81;5115179;28;20241;-72
2023/06/10 10:18:41;;;;;;;4.10;3.80;;;;;;;23.12;51.61;94387.44;5114151;28;20268;-72
2023/06/10 10:21:13;;;;;;;5.20;4.70;;;;;;;23.13;51.62;94383.38;5115065;28;20184;-71
2023/06/10 10:23:46;;;;;;;4.65;4.25;;;;;;;23.28;52.40;94382.50;5114111;28;20248;-71
2023/06/10 10:26:13;;;;;;;4.30;3.90;;;;;;;23.36;50.71;94385.84;5074166;28;20230;-71
2023/06/10 10:28:47;;;;;;;4.20;3.90;;;;;;;23.20;52.39;94383.97;5073567;28;20197;-71
2023/06/10 10:31:18;;;;;;;4.13;3.72;;;;;;;23.33;53.03;94375.50;5073126;28;20213;-71
2023/06/10 10:33:56;;;;;;;4.30;3.88;;;;;;;23.39;52.24;94373.69;5073435;28;20259;-71
2023/06/10 10:36:23;;;;;;;4.20;3.90;;;;;;;23.42;52.50;94374.78;5074329;28;20240;-71
2023/06/10 10:38:52;;;;;;;4.45;4.05;;;;;;;23.50;52.84;94376.16;5074213;28;20258;-71
2023/06/10 10:41:22;;;;;;;3.95;3.65;;;;;;;23.74;52.85;94368.88;5074042;28;20181;-71
2023/06/10 10:43:53;;;;;;;3.88;3.58;;;;;;;23.90;51.76;94364.34;5074139;28;20185;-72
2023/06/10 10:46:19;;;;;;;4.80;4.32;;;;;;;24.00;51.90;94363.97;5073233;28;20204;-71
2023/06/10 10:48:48;;;;;;;4.15;3.85;;;;;;;24.16;49.67;94357.34;5073839;28;20185;-71
2023/06/10 10:51:16;;;;;;;4.25;3.95;;;;;;;24.00;50.84;94358.34;5089402;28;20228;-72
2023/06/10 10:53:44;;;;;;;4.40;4.00;;;;;;;23.90;50.50;94350.28;5073890;28;20199;-71
2023/06/10 10:56:18;;;;;;;4.63;4.18;;;;;;;23.84;49.82;94354.91;5073067;28;20197;-71
2023/06/10 10:59:04;;;;;;;5.20;4.63;;;;;;;23.92;49.81;94339.31;5073961;28;20235;-71
2023/06/10 11:01:41;;;;;;;4.00;3.58;;;;;;;24.29;50.62;94336.75;5073834;28;20185;-71
2023/06/10 11:04:09;;;;;;;3.88;3.58;;;;;;;24.57;50.14;94340.56;5073952;28;20197;-71
2023/06/10 11:06:36;;;;;;;4.43;4.03;;;;;;;24.79;49.06;94341.31;5072876;28;20203;-71
2023/06/10 11:09:28;;;;;;;3.85;3.55;;;;;;;25.02;47.70;94330.72;5073560;28;20193;-72
2023/06/10 11:12:00;;;;;;;3.75;3.47;;;;;;;24.96;47.19;94327.75;5073840;28;20267;-72
2023/06/10 11:14:31;;;;;;;3.58;3.28;;;;;;;24.70;45.42;94330.00;5073474;28;20181;-72
2023/06/10 11:17:00;;;;;;;4.57;3.30;;;;;;;24.65;46.89;94334.19;5072673;28;20196;-71
2023/06/10 11:19:38;;;;;;;4.45;4.05;;;;;;;24.53;46.02;94332.25;5075308;28;20199;-71
2023/06/10 11:22:07;;;;;;;3.97;3.67;;;;;;;24.43;45.10;94322.94;5076807;28;20640;-71
2023/06/10 11:24:39;;;;;;;5.05;3.55;;;;;;;24.56;45.05;94320.06;5090978;28;20327;-71
2023/06/10 11:27:18;;;;;;;4.60;4.20;;;;;;;24.71;45.63;94323.88;5118730;28;20203;-71
2023/06/10 11:30:14;;;;;;;4.30;3.90;;;;;;;24.65;45.89;94308.81;5117460;28;20226;-71
2023/06/10 11:32:43;;;;;;;4.60;4.10;;;;;;;24.50;45.10;94310.63;5115486;28;20290;-71
2023/06/10 11:35:09;;;;;;;5.45;4.55;;;;;;;24.38;46.46;94298.16;5117406;28;20180;-71
2023/06/10 11:37:39;;;;;;;4.75;4.30;;;;;;;24.28;47.79;94307.81;5118647;28;20187;-70
2023/06/10 11:40:09;;;;;;;4.47;3.63;;;;;;;24.15;47.60;94305.09;5118553;28;20185;-70
2023/06/10 11:42:40;;;;;;;4.35;3.95;;;;;;;24.01;49.49;94311.25;5116956;28;20230;-70